createdAt,value
2023-02-08T00:08:18.920Z,-3.53
2023-02-08T00:13:23.077Z,-3.53
2023-02-08T00:18:27.279Z,-3.63
2023-02-08T00:23:31.445Z,-3.60
2023-02-08T00:28:35.620Z,-3.63
2023-02-08T00:33:39.776Z,-3.64
2023-02-08T00:38:43.963Z,-3.64
2023-02-08T00:43:48.108Z,-3.67
2023-02-08T00:48:52.311Z,-3.55
2023-02-08T00:53:56.475Z,-3.54
2023-02-08T00:59:00.633Z,-3.53
2023-02-08T01:04:04.768Z,-3.55
2023-02-08T01:09:08.963Z,-3.47
2023-02-08T01:14:13.144Z,-3.43
2023-02-08T01:19:17.307Z,-3.45
2023-02-08T01:24:21.449Z,-3.50
2023-02-08T01:29:25.619Z,-3.49
2023-02-08T01:34:29.775Z,-3.51
2023-02-08T01:39:33.942Z,-3.48
2023-02-08T01:44:38.098Z,-3.49
2023-02-08T01:49:40.405Z,-3.51
2023-02-08T01:54:44.550Z,-3.52
2023-02-08T01:59:46.855Z,-3.56
2023-02-08T02:04:51.017Z,-3.60
2023-02-08T02:09:55.205Z,-3.58
2023-02-08T02:14:59.451Z,-3.61
2023-02-08T02:20:03.509Z,-3.65
2023-02-08T02:25:07.694Z,-3.64
2023-02-08T02:30:11.846Z,-3.63
2023-02-08T02:35:16.022Z,-3.66
2023-02-08T02:40:20.212Z,-3.68
2023-02-08T02:45:24.386Z,-3.69
2023-02-08T02:50:28.527Z,-3.67
2023-02-08T02:55:32.924Z,-3.69
2023-02-08T03:00:36.830Z,-3.70
2023-02-08T03:05:41.013Z,-3.71
2023-02-08T03:10:45.178Z,-3.75
2023-02-08T03:15:49.404Z,-3.75
2023-02-08T03:20:53.550Z,-3.75
2023-02-08T03:25:57.696Z,-3.73
2023-02-08T03:31:02.033Z,-3.72
2023-02-08T03:36:06.073Z,-3.75
2023-02-08T03:41:10.219Z,-3.74
2023-02-08T03:46:12.528Z,-3.82
2023-02-08T03:51:16.684Z,-3.82
2023-02-08T03:56:18.965Z,-3.77
2023-02-08T04:01:23.144Z,-3.82
2023-02-08T04:06:27.261Z,-3.87
2023-02-08T04:11:31.420Z,-3.88
2023-02-08T04:16:35.658Z,-3.88
2023-02-08T04:21:39.758Z,-3.87
2023-02-08T04:26:43.986Z,-3.87
2023-02-08T04:31:48.194Z,-3.89
2023-02-08T04:36:52.309Z,-3.94
2023-02-08T04:41:56.447Z,-4.00
2023-02-08T04:47:00.616Z,-4.00
2023-02-08T04:52:04.859Z,-4.08
2023-02-08T04:57:08.986Z,-4.14
2023-02-08T05:02:13.134Z,-4.20
2023-02-08T05:07:17.320Z,-4.26
2023-02-08T05:12:21.477Z,-4.24
2023-02-08T05:17:25.671Z,-4.20
2023-02-08T05:22:29.800Z,-4.21
2023-02-08T05:27:33.974Z,-4.24
2023-02-08T05:32:36.300Z,-4.40
2023-02-08T05:37:40.417Z,-4.54
2023-02-08T05:42:42.989Z,-4.54
2023-02-08T05:47:47.187Z,-4.50
2023-02-08T05:52:49.125Z,-4.51
2023-02-08T05:57:53.285Z,-4.62
2023-02-08T06:02:57.527Z,-4.67
2023-02-08T06:08:01.651Z,-4.64
2023-02-08T06:13:05.789Z,-4.63
2023-02-08T06:18:09.972Z,-4.64
2023-02-08T06:23:14.152Z,-4.66
2023-02-08T06:28:18.373Z,-4.80
2023-02-08T06:33:22.462Z,-4.85
2023-02-08T06:38:26.624Z,-4.88
2023-02-08T06:43:30.828Z,-4.92
2023-02-08T06:48:34.993Z,-4.93
2023-02-08T06:53:39.146Z,-4.89
2023-02-08T06:58:43.292Z,-4.99
2023-02-08T07:03:47.485Z,-4.94
2023-02-08T07:08:51.661Z,-4.86
2023-02-08T07:13:55.818Z,-4.82
2023-02-08T07:19:00.044Z,-4.89
2023-02-08T07:24:04.182Z,-4.91
2023-02-08T07:29:08.340Z,-4.92
2023-02-08T07:34:12.514Z,-4.95
2023-02-08T07:39:14.754Z,-4.99
2023-02-08T07:44:19.003Z,-4.89
2023-02-08T07:49:23.138Z,-4.85
2023-02-08T07:54:25.403Z,-4.75
2023-02-08T07:59:29.553Z,-4.69
2023-02-08T08:04:33.735Z,-4.71
2023-02-08T08:09:37.919Z,-4.64
2023-02-08T08:14:42.096Z,-4.55
2023-02-08T08:19:46.215Z,-4.48
2023-02-08T08:24:50.418Z,-4.38
2023-02-08T08:29:54.551Z,-4.12
2023-02-08T08:34:58.734Z,-3.97
2023-02-08T08:40:02.952Z,-3.78
2023-02-08T08:45:07.495Z,-3.68
2023-02-08T08:50:11.235Z,-3.69
2023-02-08T08:55:15.446Z,-3.59
2023-02-08T09:00:19.560Z,-3.51
2023-02-08T09:05:23.763Z,-3.39
2023-02-08T09:10:27.914Z,-3.28
2023-02-08T09:15:32.086Z,-3.12
2023-02-08T09:20:36.245Z,-3.05
2023-02-08T09:25:40.459Z,-2.90
2023-02-08T09:30:44.949Z,-2.72
2023-02-08T09:35:49.666Z,-2.57
2023-02-08T09:40:51.068Z,-2.46
2023-02-08T09:46:00.318Z,-2.39
2023-02-08T09:50:59.369Z,-2.15
2023-02-08T09:56:03.574Z,-1.99
2023-02-08T10:01:07.860Z,-1.80
2023-02-08T10:06:11.858Z,-1.61
2023-02-08T10:11:16.068Z,-1.40
2023-02-08T10:16:20.233Z,-1.29
2023-02-08T10:21:24.397Z,-1.11
2023-02-08T10:26:28.540Z,-0.77
2023-02-08T10:31:32.740Z,-0.33
2023-02-08T10:36:36.894Z,0.03
2023-02-08T10:41:41.040Z,0.20
2023-02-08T10:46:45.204Z,0.26
2023-02-08T10:51:49.413Z,0.57
2023-02-08T10:56:53.528Z,0.74
2023-02-08T11:01:57.767Z,0.92
2023-02-08T11:07:01.875Z,1.32
2023-02-08T11:12:06.036Z,1.46
2023-02-08T11:17:10.200Z,1.60
2023-02-08T11:22:14.368Z,2.02
2023-02-08T11:27:16.753Z,2.15
2023-02-08T11:32:20.797Z,2.57
2023-02-08T11:37:24.980Z,2.70
2023-02-08T11:42:29.172Z,3.03
2023-02-08T11:47:33.330Z,3.18
2023-02-08T11:52:37.474Z,3.50
2023-02-08T11:57:41.644Z,3.69
2023-02-08T12:02:45.836Z,3.74
2023-02-08T12:07:49.988Z,4.00
2023-02-08T12:12:54.179Z,4.10
2023-02-08T12:17:58.304Z,4.46
2023-02-08T12:23:02.467Z,4.59
2023-02-08T12:28:06.638Z,4.78
2023-02-08T12:33:10.769Z,4.92
2023-02-08T12:38:14.967Z,5.06
2023-02-08T12:43:19.133Z,5.30
2023-02-08T12:48:23.286Z,5.52
2023-02-08T12:53:27.429Z,5.61
2023-02-08T12:58:31.588Z,5.66
2023-02-08T13:03:35.742Z,5.69
2023-02-08T13:08:39.953Z,5.88
2023-02-08T13:13:42.203Z,6.00
2023-02-08T13:18:46.375Z,6.05
2023-02-08T13:23:52.768Z,6.23
2023-02-08T13:28:52.768Z,6.32
2023-02-08T13:34:01.738Z,6.43
2023-02-08T13:38:59.204Z,6.38
2023-02-08T13:44:01.496Z,6.46
2023-02-08T13:49:05.679Z,6.38
2023-02-08T13:54:09.864Z,6.43
2023-02-08T13:59:14.010Z,6.51
2023-02-08T14:04:18.173Z,6.48
2023-02-08T14:09:22.308Z,6.58
2023-02-08T14:14:26.496Z,6.55
2023-02-08T14:19:30.630Z,6.50
2023-02-08T14:24:34.799Z,6.53
2023-02-08T14:29:38.973Z,6.59
2023-02-08T14:34:43.170Z,6.69
2023-02-08T14:39:47.279Z,6.61
2023-02-08T14:44:51.504Z,6.50
2023-02-08T14:49:55.629Z,6.87
2023-02-08T14:54:59.765Z,6.85
2023-02-08T15:00:03.969Z,6.83
2023-02-08T15:05:10.313Z,6.78
2023-02-08T15:10:12.255Z,6.68
2023-02-08T15:15:16.463Z,6.47
2023-02-08T15:20:20.614Z,6.48
2023-02-08T15:25:24.740Z,6.44
2023-02-08T15:30:27.033Z,6.43
2023-02-08T15:35:31.167Z,6.52
2023-02-08T15:40:35.346Z,6.98
2023-02-08T15:45:37.652Z,7.40
2023-02-08T15:50:42.001Z,7.64
2023-02-08T15:55:45.957Z,6.90
2023-02-08T16:00:50.160Z,6.20
2023-02-08T16:05:54.279Z,5.49
2023-02-08T16:10:58.421Z,5.11
2023-02-08T16:16:08.573Z,4.79
2023-02-08T16:21:06.746Z,4.39
2023-02-08T16:26:10.972Z,4.01
2023-02-08T16:31:15.128Z,3.64
2023-02-08T16:36:19.303Z,3.25
2023-02-08T16:41:23.464Z,2.93
2023-02-08T16:46:27.648Z,2.55
2023-02-08T16:51:31.778Z,2.31
2023-02-08T16:56:35.920Z,2.03
2023-02-08T17:01:40.196Z,1.71
2023-02-08T17:06:44.260Z,1.46
2023-02-08T17:11:48.412Z,1.33
2023-02-08T17:16:52.559Z,1.18
2023-02-08T17:21:56.743Z,1.04
2023-02-08T17:27:00.932Z,0.77
2023-02-08T17:32:03.186Z,0.64
2023-02-08T17:37:07.375Z,0.50
2023-02-08T17:42:09.603Z,0.40
2023-02-08T17:47:13.814Z,0.30
2023-02-08T17:52:17.983Z,0.20
2023-02-08T17:57:22.141Z,0.06
2023-02-08T18:02:26.304Z,-0.07
2023-02-08T18:07:30.443Z,-0.06
2023-02-08T18:12:34.622Z,-0.05
2023-02-08T18:17:38.794Z,-0.09
2023-02-08T18:22:42.933Z,-0.18
2023-02-08T18:27:47.118Z,-0.23
2023-02-08T18:32:51.279Z,-0.38
2023-02-08T18:37:55.459Z,-0.49
2023-02-08T18:42:59.616Z,-0.77
2023-02-08T18:48:03.834Z,-0.93
2023-02-08T18:53:07.945Z,-1.01
2023-02-08T18:58:12.086Z,-0.86
2023-02-08T19:03:16.234Z,-0.91
2023-02-08T19:08:20.449Z,-0.92
2023-02-08T19:13:24.596Z,-0.97
2023-02-08T19:18:28.753Z,-1.13
2023-02-08T19:23:32.924Z,-1.21
2023-02-08T19:28:35.231Z,-1.32
2023-02-08T19:33:39.383Z,-1.41
2023-02-08T19:38:41.664Z,-1.44
2023-02-08T19:48:49.982Z,-1.58
2023-02-08T19:53:55.171Z,-1.70
2023-02-08T19:58:58.342Z,-1.79
2023-02-08T20:04:02.532Z,-1.86
2023-02-08T20:09:06.672Z,-1.88
2023-02-08T20:14:10.840Z,-1.96
2023-02-08T20:19:14.995Z,-2.01
2023-02-08T20:24:19.288Z,-2.02
2023-02-08T20:29:23.362Z,-1.83
2023-02-08T20:34:27.533Z,-1.62
2023-02-08T20:39:33.640Z,-1.72
2023-02-08T20:44:35.823Z,-1.84
2023-02-08T20:49:40.112Z,-1.83
2023-02-08T20:54:44.157Z,-1.81
2023-02-08T20:59:48.307Z,-1.86
2023-02-08T21:04:52.510Z,-1.99
2023-02-08T21:09:56.698Z,-2.03
2023-02-08T21:15:00.842Z,-2.01
2023-02-08T21:20:05.043Z,-2.02
2023-02-08T21:25:09.162Z,-2.01
2023-02-08T21:30:11.569Z,-2.04
2023-02-08T21:35:15.623Z,-2.11
2023-02-08T21:40:19.768Z,-2.14
2023-02-08T21:45:22.058Z,-1.97
2023-02-08T21:50:26.275Z,-2.03
2023-02-08T21:55:30.418Z,-2.08
2023-02-08T22:00:34.705Z,-2.06
2023-02-08T22:05:38.766Z,-2.11
2023-02-08T22:10:50.147Z,-2.17
2023-02-08T22:15:47.123Z,-2.23
2023-02-08T22:20:51.241Z,-2.12
2023-02-08T22:25:55.381Z,-2.13
2023-02-08T22:30:57.792Z,-2.12
2023-02-08T22:36:01.851Z,-2.12
2023-02-08T22:41:06.009Z,-2.14
2023-02-08T22:46:10.220Z,-2.22
2023-02-08T22:51:14.335Z,-2.23
2023-02-08T22:56:18.492Z,-2.14
2023-02-08T23:01:22.734Z,-2.16
2023-02-08T23:06:26.837Z,-2.21
2023-02-08T23:11:31.030Z,-2.23
2023-02-08T23:16:35.237Z,-2.30
2023-02-08T23:21:39.907Z,-2.33
2023-02-08T23:26:43.523Z,-2.56
2023-02-08T23:31:45.927Z,-2.73
2023-02-08T23:36:49.965Z,-2.82
2023-02-08T23:41:52.236Z,-2.62
2023-02-08T23:46:56.437Z,-2.68
2023-02-08T23:52:00.542Z,-2.58
2023-02-08T23:57:04.767Z,-2.62
